Time;durP1;ratioP1;P1;durP2;ratioP2;P2;SDS_P1;SDS_P2;PMS_P1;PMS_P2;Temp;Humidity;BMP_temperature;BMP_pressure;BME280_temperature;BME280_humidity;BME280_pressure;Samples;Min_cycle;Max_cycle;Signal;HPM_P1;HPM_P2
2023/07/09 00:02:21;;;;;;;;;;;;;;;13.66;71.50;101909.29;107694;1254;124562;-81
2023/07/09 00:04:48;;;;;;;;;;;;;;;13.64;71.55;101912.39;107928;1254;72750;-81
2023/07/09 00:07:27;;;;;;;;;;;;;;;13.62;71.66;101906.70;107700;1259;125346;-81
2023/07/09 00:09:54;;;;;;;;;;;;;;;13.61;71.84;101905.62;107847;1254;61692;-81
2023/07/09 00:12:21;;;;;;;;;;;;;;;13.60;71.82;101905.77;107722;1254;125589;-81
2023/07/09 00:14:48;;;;;;;;;;;;;;;13.60;71.92;101902.77;107718;1254;66912;-81
2023/07/09 00:17:21;;;;;;;;;;;;;;;13.60;71.98;101901.89;107733;1259;72691;-81
2023/07/09 00:19:49;;;;;;;;;;;;;;;13.61;72.12;101903.67;107650;1253;125439;-81
2023/07/09 00:22:16;;;;;;;;;;;;;;;13.63;72.11;101904.63;107792;1253;61022;-81
2023/07/09 00:24:47;;;;;;;;;;;;;;;13.66;72.16;101899.23;107585;1255;125135;-81
2023/07/09 00:27:14;;;;;;;;;;;;;;;13.67;72.28;101898.41;108031;1254;67043;-81
2023/07/09 00:29:41;;;;;;;;;;;;;;;13.69;72.26;101900.77;108268;1254;72421;-81
2023/07/09 00:32:11;;;;;;;;;;;;;;;13.72;72.25;101904.19;107916;1253;125306;-81
2023/07/09 00:34:38;;;;;;;;;;;;;;;13.75;72.28;101908.14;107832;1254;59585;-81
2023/07/09 00:37:09;;;;;;;;;;;;;;;13.75;72.28;101905.36;108026;1254;124966;-81
2023/07/09 00:39:36;;;;;;;;;;;;;;;13.76;72.22;101906.98;108181;1254;65878;-82
2023/07/09 00:42:03;;;;;;;;;;;;;;;13.77;72.36;101906.11;109043;1254;147809;-81
2023/07/09 00:44:31;;;;;;;;;;;;;;;13.78;72.31;101909.66;109193;1254;58947;-82
2023/07/09 00:47:01;;;;;;;;;;;;;;;13.77;72.41;101907.16;109074;1252;59318;-82
2023/07/09 00:49:29;;;;;;;;;;;;;;;13.74;72.49;101908.50;109162;1253;124469;-83
2023/07/09 00:51:57;;;;;;;;;;;;;;;13.72;72.59;101910.38;109189;1254;65504;-82
2023/07/09 00:54:30;;;;;;;;;;;;;;;13.70;72.51;101907.30;108950;1253;124776;-82
2023/07/09 00:57:01;;;;;;;;;;;;;;;13.66;72.56;101908.77;108283;1259;59796;-82
2023/07/09 00:59:31;;;;;;;;;;;;;;;13.63;72.67;101907.80;107947;1254;62194;-81
2023/07/09 01:02:00;;;;;;;;;;;;;;;13.59;72.72;101910.87;108003;1254;125632;-81
2023/07/09 01:04:27;;;;;;;;;;;;;;;13.56;72.75;101910.58;108197;1254;67046;-81
2023/07/09 01:06:54;;;;;;;;;;;;;;;13.53;72.79;101903.95;107918;1254;124223;-82
2023/07/09 01:09:22;;;;;;;;;;;;;;;13.50;72.94;101906.16;108187;1254;61034;-82
2023/07/09 01:11:50;;;;;;;;;;;;;;;13.47;72.99;101900.06;108086;1256;61172;-82
2023/07/09 01:14:19;;;;;;;;;;;;;;;13.43;73.00;101902.59;107835;1254;124241;-81
2023/07/09 01:16:57;;;;;;;;;;;;;;;13.39;73.22;101903.00;107904;1254;65785;-82
2023/07/09 01:19:25;;;;;;;;;;;;;;;13.35;73.33;101903.21;107725;1254;124563;-82
2023/07/09 01:21:58;;;;;;;;;;;;;;;13.31;73.37;101901.52;109227;1253;59617;-82
2023/07/09 01:24:45;;;;;;;;;;;;;;;13.30;73.53;101905.33;109097;1254;125045;-81
2023/07/09 01:27:12;;;;;;;;;;;;;;;13.29;73.55;101905.98;109123;1253;75221;-82
2023/07/09 01:29:39;;;;;;;;;;;;;;;13.28;73.60;101905.25;108291;1254;67050;-82
2023/07/09 01:32:06;;;;;;;;;;;;;;;13.28;73.72;101905.77;107621;1254;125392;-82
2023/07/09 01:34:34;;;;;;;;;;;;;;;13.28;73.85;101904.18;108077;1253;59501;-82
2023/07/09 01:37:07;;;;;;;;;;;;;;;13.29;73.94;101909.85;107561;1256;124867;-85
2023/07/09 01:39:35;;;;;;;;;;;;;;;13.30;73.98;101908.48;107744;1254;73453;-85
2023/07/09 01:42:06;;;;;;;;;;;;;;;13.29;74.05;101906.70;107714;1254;124956;-84
2023/07/09 01:44:40;;;;;;;;;;;;;;;13.28;73.99;101900.31;107592;1259;72465;-83
2023/07/09 01:47:08;;;;;;;;;;;;;;;13.26;74.14;101897.23;107636;1254;61656;-84
2023/07/09 01:49:35;;;;;;;;;;;;;;;13.25;74.14;101902.52;107790;1253;125472;-82
2023/07/09 01:52:03;;;;;;;;;;;;;;;13.25;74.18;101904.61;108001;1256;75411;-83
2023/07/09 01:54:31;;;;;;;;;;;;;;;13.24;74.20;101906.72;107982;1254;125501;-83
2023/07/09 01:57:12;;;;;;;;;;;;;;;13.25;74.24;101910.45;108104;1254;72923;-83
2023/07/09 01:59:41;;;;;;;;;;;;;;;13.27;74.24;101914.19;107911;1257;61356;-84
2023/07/09 02:02:08;;;;;;;;;;;;;;;13.27;74.30;101916.16;107684;1254;124910;-84
2023/07/09 02:04:35;;;;;;;;;;;;;;;13.30;74.18;101923.29;107935;1254;75305;-84
2023/07/09 02:07:02;;;;;;;;;;;;;;;13.32;74.27;101923.55;107730;1254;125227;-85
2023/07/09 02:09:29;;;;;;;;;;;;;;;13.34;74.25;101925.75;107590;1254;73186;-85
2023/07/09 02:11:56;;;;;;;;;;;;;;;13.36;74.22;101928.10;107401;1254;61420;-85
2023/07/09 02:14:24;;;;;;;;;;;;;;;13.37;74.26;101926.40;107860;1254;124668;-84
2023/07/09 02:16:53;;;;;;;;;;;;;;;13.39;74.19;101930.50;107971;1254;73405;-85
2023/07/09 02:19:23;;;;;;;;;;;;;;;13.42;74.21;101928.81;107759;1256;125568;-85
2023/07/09 02:21:51;;;;;;;;;;;;;;;13.44;74.19;101930.98;107861;1254;72537;-84
2023/07/09 02:24:27;;;;;;;;;;;;;;;13.47;74.24;101933.55;107610;1254;125176;-84
2023/07/09 02:27:10;;;;;;;;;;;;;;;13.50;74.20;101929.27;107988;1254;59951;-85
2023/07/09 02:29:38;;;;;;;;;;;;;;;13.54;74.17;101926.21;107789;1260;73090;-84
2023/07/09 02:32:05;;;;;;;;;;;;;;;13.60;74.09;101928.35;108110;1253;125594;-84
2023/07/09 02:34:32;;;;;;;;;;;;;;;13.66;74.11;101929.39;108072;1258;72763;-84
2023/07/09 02:37:06;;;;;;;;;;;;;;;13.72;73.97;101929.25;107752;1256;125158;-84
2023/07/09 02:39:33;;;;;;;;;;;;;;;13.78;73.92;101930.34;107932;1257;59965;-83
2023/07/09 02:42:00;;;;;;;;;;;;;;;13.86;73.88;101924.55;107847;1253;125468;-82
2023/07/09 02:44:27;;;;;;;;;;;;;;;13.91;73.80;101925.94;108118;1254;67041;-84
2023/07/09 02:46:54;;;;;;;;;;;;;;;13.97;73.78;101927.34;108385;1253;73031;-84
2023/07/09 02:49:21;;;;;;;;;;;;;;;14.03;73.57;101927.89;107722;1254;124140;-84
2023/07/09 02:51:51;;;;;;;;;;;;;;;14.07;73.47;101931.52;107772;1253;60427;-84
2023/07/09 02:54:23;;;;;;;;;;;;;;;14.10;73.21;101936.38;107467;1254;124386;-83
2023/07/09 02:56:51;;;;;;;;;;;;;;;14.10;73.21;101941.16;107766;1253;66804;-84
2023/07/09 02:59:26;;;;;;;;;;;;;;;14.08;73.11;101944.28;107817;1257;73107;-84
2023/07/09 03:01:56;;;;;;;;;;;;;;;14.07;72.99;101945.30;107616;1254;124756;-83
2023/07/09 03:04:23;;;;;;;;;;;;;;;14.06;73.08;101945.61;107882;1254;59973;-84
2023/07/09 03:06:50;;;;;;;;;;;;;;;14.04;72.89;101944.52;107851;1254;124670;-83
2023/07/09 03:09:19;;;;;;;;;;;;;;;14.05;72.92;101943.31;108100;1253;65888;-83
2023/07/09 03:11:52;;;;;;;;;;;;;;;14.06;72.95;101940.15;108099;1254;71378;-83
2023/07/09 03:14:19;;;;;;;;;;;;;;;14.08;72.94;101935.46;108172;1253;124029;-84
2023/07/09 03:16:46;;;;;;;;;;;;;;;14.10;72.94;101935.87;107953;1253;61481;-84
2023/07/09 03:19:13;;;;;;;;;;;;;;;14.13;72.84;101938.77;107748;1254;124267;-84
2023/07/09 03:21:42;;;;;;;;;;;;;;;14.17;72.95;101936.41;108027;1253;67566;-84
2023/07/09 03:24:09;;;;;;;;;;;;;;;14.24;73.03;101936.26;107659;1254;124361;-83
2023/07/09 03:26:38;;;;;;;;;;;;;;;14.34;72.91;101938.31;107801;1259;61311;-84
2023/07/09 03:29:11;;;;;;;;;;;;;;;14.49;73.01;101939.30;107837;1256;59844;-84
2023/07/09 03:31:49;;;;;;;;;;;;;;;14.85;73.50;101942.04;107764;1254;125155;-84
2023/07/09 03:34:18;;;;;;;;;;;;;;;15.28;72.93;101938.20;107835;1257;65771;-84
2023/07/09 03:36:45;;;;;;;;;;;;;;;15.56;72.37;101937.44;107694;1254;124829;-84
2023/07/09 03:39:12;;;;;;;;;;;;;;;15.81;72.12;101940.15;107916;1253;60997;-84
2023/07/09 03:41:39;;;;;;;;;;;;;;;16.04;71.51;101942.97;108126;1253;60986;-84
2023/07/09 03:44:06;;;;;;;;;;;;;;;16.22;71.03;101946.38;108025;1254;124920;-84
2023/07/09 03:46:35;;;;;;;;;;;;;;;16.45;70.75;101948.96;107951;1256;64810;-84
2023/07/09 03:49:03;;;;;;;;;;;;;;;16.69;70.32;101947.49;107678;1253;125401;-84
2023/07/09 03:51:31;;;;;;;;;;;;;;;16.84;69.76;101946.00;107642;1254;59975;-84
2023/07/09 03:53:58;;;;;;;;;;;;;;;17.07;69.68;101948.91;107547;1254;60383;-85
2023/07/09 03:56:25;;;;;;;;;;;;;;;17.41;69.24;101948.59;107732;1253;75114;-85
2023/07/09 03:58:52;;;;;;;;;;;;;;;17.70;68.84;101947.08;108008;1253;66044;-86
2023/07/09 04:01:19;;;;;;;;;;;;;;;19.17;70.54;101944.86;107695;1254;124798;-86
2023/07/09 04:03:46;;;;;;;;;;;;;;;21.52;69.57;101939.55;107964;1253;59664;-84
2023/07/09 04:06:13;;;;;;;;;;;;;;;23.66;66.59;101933.91;107890;1254;124395;-83
2023/07/09 04:08:41;;;;;;;;;;;;;;;25.52;63.85;101929.34;107677;1254;74961;-85
2023/07/09 04:11:09;;;;;;;;;;;;;;;26.16;59.45;101929.76;107660;1254;67165;-84
2023/07/09 04:13:42;;;;;;;;;;;;;;;26.55;58.51;101931.95;107782;1254;124309;-84
2023/07/09 04:16:09;;;;;;;;;;;;;;;28.03;57.37;101936.63;108020;1254;61864;-85
2023/07/09 04:18:36;;;;;;;;;;;;;;;29.58;55.63;101936.23;109033;1254;124635;-85
2023/07/09 04:21:03;;;;;;;;;;;;;;;30.80;53.17;101937.19;107984;1254;65906;-85
2023/07/09 04:23:39;;;;;;;;;;;;;;;31.62;50.20;101943.91;107922;1254;59860;-85
2023/07/09 04:26:09;;;;;;;;;;;;;;;32.05;48.21;101944.91;107729;1256;124374;-85
2023/07/09 04:28:37;;;;;;;;;;;;;;;32.70;46.72;101945.98;107735;1254;59969;-86
2023/07/09 04:31:05;;;;;;;;;;;;;;;33.26;45.33;101943.78;107562;1254;124586;-86
2023/07/09 04:33:32;;;;;;;;;;;;;;;33.92;44.49;101942.11;107728;1253;66043;-87
2023/07/09 04:35:59;;;;;;;;;;;;;;;34.56;43.07;101949.35;107859;1254;59385;-86
2023/07/09 04:38:26;;;;;;;;;;;;;;;35.25;41.71;101955.20;107993;1254;65847;-86
2023/07/09 04:40:53;;;;;;;;;;;;;;;35.55;40.13;101959.04;107947;1253;61826;-85
2023/07/09 04:43:20;;;;;;;;;;;;;;;35.07;38.56;101960.95;107950;1254;124216;-85
2023/07/09 04:45:47;;;;;;;;;;;;;;;33.10;37.54;101962.13;107707;1254;73241;-85
2023/07/09 04:48:15;;;;;;;;;;;;;;;31.57;38.85;101962.07;107668;1253;124794;-85
2023/07/09 04:50:42;;;;;;;;;;;;;;;30.68;38.95;101959.97;108088;1254;64616;-81
2023/07/09 04:53:09;;;;;;;;;;;;;;;29.97;39.68;101955.67;107971;1257;59494;-85
2023/07/09 04:55:36;;;;;;;;;;;;;;;30.41;40.53;101951.08;107684;1254;124694;-85
2023/07/09 04:58:03;;;;;;;;;;;;;;;31.73;40.09;101951.20;108006;1254;66193;-80
2023/07/09 05:00:30;;;;;;;;;;;;;;;32.04;38.66;101953.68;108286;1253;124801;-79
2023/07/09 05:02:57;;;;;;;;;;;;;;;31.16;38.51;101949.88;108199;1254;63881;-80
2023/07/09 05:05:24;;;;;;;;;;;;;;;30.13;38.60;101948.48;108380;1253;59168;-80
2023/07/09 05:07:51;;;;;;;;;;;;;;;29.04;39.05;101950.15;108136;1254;124740;-80
2023/07/09 05:10:18;;;;;;;;;;;;;;;28.49;40.14;101949.40;107858;1254;74688;-85
2023/07/09 05:12:52;;;;;;;;;;;;;;;28.97;40.62;101953.31;107882;1254;125218;-79
2023/07/09 05:15:19;;;;;;;;;;;;;;;30.03;41.03;101950.65;107787;1260;62581;-81
2023/07/09 05:17:46;;;;;;;;;;;;;;;31.42;39.82;101952.05;107695;1254;60210;-81
2023/07/09 05:20:21;;;;;;;;;;;;;;;31.42;38.34;101947.48;107425;1252;124497;-86
2023/07/09 05:22:48;;;;;;;;;;;;;;;30.88;38.47;101944.16;107642;1254;66563;-86
2023/07/09 05:25:15;;;;;;;;;;;;;;;31.18;38.77;101946.53;107877;1253;124300;-84
2023/07/09 05:27:42;;;;;;;;;;;;;;;31.42;38.16;101951.85;108230;1254;71029;-85
2023/07/09 05:30:15;;;;;;;;;;;;;;;31.71;37.84;101961.31;107893;1254;124426;-84
2023/07/09 05:32:42;;;;;;;;;;;;;;;31.79;37.17;101966.02;108209;1254;61211;-84
2023/07/09 05:35:10;;;;;;;;;;;;;;;31.50;37.45;101964.75;107675;1254;64410;-84
2023/07/09 05:37:37;;;;;;;;;;;;;;;32.63;38.07;101960.31;107430;1254;124113;-84
2023/07/09 05:40:05;;;;;;;;;;;;;;;34.40;37.10;101956.94;107746;1254;64086;-84
2023/07/09 05:42:32;;;;;;;;;;;;;;;35.98;36.11;101959.41;107602;1254;124942;-84
2023/07/09 05:45:00;;;;;;;;;;;;;;;36.64;34.44;101959.27;107944;1253;60057;-84
2023/07/09 05:47:27;;;;;;;;;;;;;;;35.58;33.16;101958.47;108115;1253;64765;-85
2023/07/09 05:49:54;;;;;;;;;;;;;;;34.02;33.53;101952.30;107950;1254;124517;-84
2023/07/09 05:52:28;;;;;;;;;;;;;;;32.62;33.99;101953.80;107637;1258;64714;-87
2023/07/09 05:54:55;;;;;;;;;;;;;;;31.30;34.72;101957.23;107637;1253;124175;-85
2023/07/09 05:57:24;;;;;;;;;;;;;;;30.21;35.34;101959.27;107521;1254;60175;-88
2023/07/09 05:59:51;;;;;;;;;;;;;;;29.29;36.08;101963.27;107628;1253;64754;-89
2023/07/09 06:02:20;;;;;;;;;;;;;;;28.48;36.73;101968.90;107493;1254;124345;-88
2023/07/09 06:04:50;;;;;;;;;;;;;;;27.68;37.34;101972.98;107572;1254;70844;-80
2023/07/09 06:07:20;;;;;;;;;;;;;;;27.04;38.12;101969.18;107917;1254;124456;-80
2023/07/09 06:09:47;;;;;;;;;;;;;;;26.52;38.44;101967.85;107958;1254;60525;-80
2023/07/09 06:12:14;;;;;;;;;;;;;;;26.03;38.90;101966.90;107953;1252;124283;-81
2023/07/09 06:14:41;;;;;;;;;;;;;;;25.61;39.51;101970.19;107877;1254;65631;-83
2023/07/09 06:17:08;;;;;;;;;;;;;;;25.30;39.92;101973.78;107984;1254;72706;-80
2023/07/09 06:19:35;;;;;;;;;;;;;;;24.79;40.27;101974.92;107909;1254;124442;-79
2023/07/09 06:22:02;;;;;;;;;;;;;;;24.38;40.85;101976.37;107942;1254;60120;-79
2023/07/09 06:24:30;;;;;;;;;;;;;;;24.13;41.21;101971.81;107880;1254;124222;-83
2023/07/09 06:26:58;;;;;;;;;;;;;;;23.95;41.51;101969.16;107821;1254;65788;-81
2023/07/09 06:29:25;;;;;;;;;;;;;;;23.76;41.71;101969.16;107781;1254;72439;-80
2023/07/09 06:31:52;;;;;;;;;;;;;;;23.53;41.54;101964.54;108090;1253;124623;-81
2023/07/09 06:34:19;;;;;;;;;;;;;;;23.29;41.72;101954.02;108010;1254;60963;-80
2023/07/09 06:36:46;;;;;;;;;;;;;;;23.13;41.67;101960.95;107724;1254;124280;-80
2023/07/09 06:39:13;;;;;;;;;;;;;;;22.93;41.93;101957.84;107551;1253;67023;-80
2023/07/09 06:41:40;;;;;;;;;;;;;;;22.74;42.27;101956.54;107987;1253;73446;-82
2023/07/09 06:44:13;;;;;;;;;;;;;;;22.58;42.78;101952.88;107656;1254;124070;-82
2023/07/09 06:46:40;;;;;;;;;;;;;;;22.46;43.16;101957.41;108102;1256;61260;-81
2023/07/09 06:49:07;;;;;;;;;;;;;;;22.34;43.40;101960.33;107778;1253;124472;-80
2023/07/09 06:51:35;;;;;;;;;;;;;;;22.29;43.65;101965.19;108346;1254;65889;-81
2023/07/09 06:54:01;;;;;;;;;;;;;;;22.29;43.91;101962.33;108305;1254;71323;-79
2023/07/09 06:56:28;;;;;;;;;;;;;;;22.30;44.04;101961.98;108131;1254;124317;-81
2023/07/09 06:58:55;;;;;;;;;;;;;;;22.28;44.14;101955.52;108067;1256;61708;-82
2023/07/09 07:01:22;;;;;;;;;;;;;;;22.29;44.21;101954.45;108257;1253;124668;-80
2023/07/09 07:03:49;;;;;;;;;;;;;;;22.28;44.23;101953.75;108308;1254;66929;-80
2023/07/09 07:06:16;;;;;;;;;;;;;;;22.29;44.24;101952.48;108227;1254;124852;-81
2023/07/09 07:08:44;;;;;;;;;;;;;;;22.29;44.45;101953.39;108605;1253;61349;-85
2023/07/09 07:11:11;;;;;;;;;;;;;;;22.32;44.39;101957.48;107999;1259;60147;-80
2023/07/09 07:13:38;;;;;;;;;;;;;;;22.27;44.16;101961.08;108275;1254;124836;-82
2023/07/09 07:16:07;;;;;;;;;;;;;;;22.24;44.29;101964.64;108278;1254;67355;-83
2023/07/09 07:18:34;;;;;;;;;;;;;;;22.21;44.38;101966.98;108039;1254;125156;-81
2023/07/09 07:21:07;;;;;;;;;;;;;;;22.22;44.59;101966.24;107995;1254;59863;-84
2023/07/09 07:23:34;;;;;;;;;;;;;;;22.25;44.63;101965.73;108015;1254;60836;-80
2023/07/09 07:26:01;;;;;;;;;;;;;;;22.29;44.71;101962.15;107745;1252;124292;-85
2023/07/09 07:28:28;;;;;;;;;;;;;;;22.36;44.87;101964.98;108400;1256;67132;-86
2023/07/09 07:31:05;;;;;;;;;;;;;;;22.40;44.72;101959.59;107708;1253;124448;-83
2023/07/09 07:33:32;;;;;;;;;;;;;;;22.39;44.59;101954.05;108033;1254;60817;-81
2023/07/09 07:35:59;;;;;;;;;;;;;;;22.39;44.55;101957.64;108309;1254;59421;-82
2023/07/09 07:38:26;;;;;;;;;;;;;;;22.38;44.47;101957.63;107886;1254;124343;-81
2023/07/09 07:40:53;;;;;;;;;;;;;;;22.38;44.28;101962.28;108321;1254;65769;-81
2023/07/09 07:43:21;;;;;;;;;;;;;;;22.39;44.35;101960.14;107848;1259;70383;-82
2023/07/09 07:45:48;;;;;;;;;;;;;;;22.46;44.30;101960.27;107676;1254;61371;-82
2023/07/09 07:48:15;;;;;;;;;;;;;;;22.50;44.20;101958.11;108070;1256;124641;-82
2023/07/09 07:50:42;;;;;;;;;;;;;;;22.51;44.01;101955.42;107910;1258;73357;-80
2023/07/09 07:53:10;;;;;;;;;;;;;;;22.52;44.11;101954.16;108333;1253;67552;-80
2023/07/09 07:55:37;;;;;;;;;;;;;;;22.55;44.37;101955.40;108116;1254;124814;-80
2023/07/09 07:58:04;;;;;;;;;;;;;;;22.61;44.66;101961.63;108095;1253;61066;-80
2023/07/09 08:00:31;;;;;;;;;;;;;;;22.67;44.61;101960.88;108978;1254;124756;-80
2023/07/09 08:02:58;;;;;;;;;;;;;;;22.73;44.58;101960.30;108354;1254;72987;-82
2023/07/09 08:05:25;;;;;;;;;;;;;;;22.80;44.22;101964.73;107764;1254;65972;-83
2023/07/09 08:07:52;;;;;;;;;;;;;;;22.86;43.83;101966.48;107877;1253;124761;-81
2023/07/09 08:10:19;;;;;;;;;;;;;;;22.92;43.67;101968.23;108117;1253;59924;-79
2023/07/09 08:12:46;;;;;;;;;;;;;;;22.97;43.54;101969.27;108088;1254;124936;-80
2023/07/09 08:15:13;;;;;;;;;;;;;;;23.00;43.33;101962.45;108004;1253;73084;-84
2023/07/09 08:17:40;;;;;;;;;;;;;;;22.98;43.22;101960.85;108343;1257;66793;-81
2023/07/09 08:20:23;;;;;;;;;;;;;;;22.98;43.37;101956.73;107583;1254;124410;-93
2023/07/09 08:23:09;;;;;;;;;;;;;;;23.00;43.49;101958.16;107833;1256;59446;-91
2023/07/09 08:25:42;;;;;;;;;;;;;;;23.04;43.52;101960.66;107878;1253;124064;-88
2023/07/09 08:28:09;;;;;;;;;;;;;;;23.07;43.29;101957.95;107882;1252;74641;-86
2023/07/09 08:30:45;;;;;;;;;;;;;;;23.08;43.31;101955.25;107683;1253;123116;-90
2023/07/09 08:33:28;;;;;;;;;;;;;;;23.12;43.36;101957.20;107462;1253;72729;-87
2023/07/09 08:35:56;;;;;;;;;;;;;;;23.15;43.30;101953.23;107643;1255;61442;-83
2023/07/09 08:38:23;;;;;;;;;;;;;;;23.19;43.22;101946.23;108101;1254;124294;-83
2023/07/09 08:40:50;;;;;;;;;;;;;;;23.23;43.18;101946.36;108110;1254;75234;-81
2023/07/09 08:43:31;;;;;;;;;;;;;;;23.26;43.20;101942.21;108117;1256;124474;-80
2023/07/09 08:46:01;;;;;;;;;;;;;;;23.31;43.22;101945.40;108121;1254;72336;-80
2023/07/09 08:48:35;;;;;;;;;;;;;;;23.34;43.05;101945.56;107982;1254;125081;-80
2023/07/09 08:51:11;;;;;;;;;;;;;;;23.36;42.88;101944.46;107922;1254;61317;-82
2023/07/09 08:53:50;;;;;;;;;;;;;;;23.37;42.80;101945.52;107718;1256;73701;-83
2023/07/09 08:56:18;;;;;;;;;;;;;;;23.41;42.66;101944.05;108107;1256;124082;-82
2023/07/09 08:58:46;;;;;;;;;;;;;;;23.45;42.55;101938.64;108113;1254;71833;-84
2023/07/09 09:01:23;;;;;;;;;;;;;;;23.52;42.66;101943.59;108070;1254;124865;-83
2023/07/09 09:03:51;;;;;;;;;;;;;;;23.58;42.46;101946.04;107868;1254;60154;-83
2023/07/09 09:06:21;;;;;;;;;;;;;;;23.64;42.23;101946.88;107668;1256;124390;-83
2023/07/09 09:09:07;;;;;;;;;;;;;;;23.69;42.08;101949.52;107821;1256;67087;-82
2023/07/09 09:11:49;;;;;;;;;;;;;;;23.77;42.10;101945.86;108049;1254;71132;-81
2023/07/09 09:14:22;;;;;;;;;;;;;;;23.86;42.02;101942.19;107789;1254;124867;-83
2023/07/09 09:16:49;;;;;;;;;;;;;;;23.89;41.81;101940.55;108261;1254;61209;-81
2023/07/09 09:19:25;;;;;;;;;;;;;;;23.88;41.48;101942.17;107752;1253;124541;-81
2023/07/09 09:21:55;;;;;;;;;;;;;;;23.88;41.46;101942.35;107544;1254;65906;-83
2023/07/09 09:24:25;;;;;;;;;;;;;;;23.90;41.28;101941.23;107425;1254;124263;-81
2023/07/09 09:26:52;;;;;;;;;;;;;;;23.91;41.23;101940.16;107548;1254;59942;-85
2023/07/09 09:29:22;;;;;;;;;;;;;;;23.92;41.26;101939.61;107744;1254;61369;-85
2023/07/09 09:31:50;;;;;;;;;;;;;;;23.94;41.02;101943.17;108003;1254;124325;-85
2023/07/09 09:34:20;;;;;;;;;;;;;;;23.98;41.00;101945.27;107567;1254;65855;-84
2023/07/09 09:36:50;;;;;;;;;;;;;;;24.03;40.98;101948.10;107572;1256;124217;-84
2023/07/09 09:39:17;;;;;;;;;;;;;;;24.05;40.85;101944.48;107646;1254;61335;-86
2023/07/09 09:41:45;;;;;;;;;;;;;;;24.06;40.78;101940.33;107466;1254;61550;-84
2023/07/09 09:44:31;;;;;;;;;;;;;;;24.12;41.02;101940.27;107710;1254;124561;-84
2023/07/09 09:47:00;;;;;;;;;;;;;;;24.16;40.89;101943.98;107600;1254;65743;-86
2023/07/09 09:49:28;;;;;;;;;;;;;;;24.21;40.88;101943.39;107557;1254;126009;-86
2023/07/09 09:51:58;;;;;;;;;;;;;;;24.23;40.78;101939.23;107703;1253;60499;-80
2023/07/09 09:54:27;;;;;;;;;;;;;;;24.27;40.79;101938.83;108493;1257;124696;-86
2023/07/09 09:56:54;;;;;;;;;;;;;;;24.30;40.32;101941.11;108730;1258;74746;-85
2023/07/09 09:59:31;;;;;;;;;;;;;;;24.31;40.38;101939.48;108736;1258;67976;-86
2023/07/09 10:01:58;;;;;;;;;;;;;;;24.35;40.29;101937.28;108594;1259;124583;-85
2023/07/09 10:04:25;;;;;;;;;;;;;;;24.40;40.29;101934.17;108639;1259;59398;-85
2023/07/09 10:06:57;;;;;;;;;;;;;;;24.48;40.13;101929.04;108584;1259;124376;-85
2023/07/09 10:09:25;;;;;;;;;;;;;;;24.57;39.98;101930.73;108671;1257;74699;-85
2023/07/09 10:11:52;;;;;;;;;;;;;;;24.61;39.83;101928.34;108683;1259;67286;-85
2023/07/09 10:14:18;;;;;;;;;;;;;;;24.62;39.74;101929.75;108585;1258;125948;-85
2023/07/09 10:16:45;;;;;;;;;;;;;;;24.61;39.50;101929.59;108664;1258;59508;-85
2023/07/09 10:19:19;;;;;;;;;;;;;;;24.64;39.73;101927.04;108427;1258;124697;-86
2023/07/09 10:21:49;;;;;;;;;;;;;;;24.71;39.61;101924.23;108772;1257;75296;-85
2023/07/09 10:24:26;;;;;;;;;;;;;;;24.75;39.59;101927.77;108573;1260;124231;-85
2023/07/09 10:27:09;;;;;;;;;;;;;;;24.78;39.35;101930.95;108702;1259;72751;-86
2023/07/09 10:30:00;;;;;;;;;;;;;;;24.83;39.33;101932.48;108592;1259;59127;-85
2023/07/09 10:32:27;;;;;;;;;;;;;;;24.81;39.16;101932.16;108428;1261;124440;-86
2023/07/09 10:35:12;;;;;;;;;;;;;;;24.79;39.51;101929.50;108640;1263;75847;-86
2023/07/09 10:37:52;;;;;;;;;;;;;;;24.80;39.56;101924.63;108510;1259;124383;-87
2023/07/09 10:40:45;;;;;;;;;;;;;;;24.80;39.81;101927.16;108366;1262;71542;-87
2023/07/09 10:43:31;;;;;;;;;;;;;;;24.81;40.12;101929.30;108247;1259;124825;-88
2023/07/09 10:46:04;;;;;;;;;;;;;;;24.81;40.19;101928.94;108533;1260;59687;-87
2023/07/09 10:48:55;;;;;;;;;;;;;;;24.85;40.15;101929.05;108301;1260;124584;-87
2023/07/09 10:51:27;;;;;;;;;;;;;;;24.88;40.30;101932.95;108250;1261;352676;-89
2023/07/09 10:54:03;;;;;;;;;;;;;;;24.90;40.25;101930.95;108460;1263;71452;-88
2023/07/09 10:56:31;;;;;;;;;;;;;;;24.91;40.23;101929.67;108346;1262;124506;-88
2023/07/09 10:59:13;;;;;;;;;;;;;;;24.92;40.18;101928.05;108492;1259;59326;-88
2023/07/09 11:01:41;;;;;;;;;;;;;;;24.91;39.91;101928.78;108186;1267;124201;-87
2023/07/09 11:04:32;;;;;;;;;;;;;;;24.90;39.72;101928.63;108399;1262;66792;-87
2023/07/09 11:07:01;;;;;;;;;;;;;;;24.91;39.75;101920.88;108429;1264;125014;-89
2023/07/09 11:09:41;;;;;;;;;;;;;;;24.94;39.89;101922.27;108466;1264;60010;-88
2023/07/09 11:12:10;;;;;;;;;;;;;;;25.00;39.71;101928.98;108443;1267;59434;-82
2023/07/09 11:14:43;;;;;;;;;;;;;;;24.99;39.51;101922.02;108375;1261;124207;-83
2023/07/09 11:17:21;;;;;;;;;;;;;;;24.99;39.42;101920.57;108495;1258;65805;-83
2023/07/09 11:20:00;;;;;;;;;;;;;;;25.02;39.55;101919.45;108413;1259;124150;-83
2023/07/09 11:22:39;;;;;;;;;;;;;;;25.06;39.31;101914.00;108648;1257;59443;-84
2023/07/09 11:25:12;;;;;;;;;;;;;;;25.10;39.27;101919.84;108637;1260;125262;-81
2023/07/09 11:28:03;;;;;;;;;;;;;;;25.13;39.24;101920.34;108701;1259;74670;-81
2023/07/09 11:30:51;;;;;;;;;;;;;;;25.16;38.95;101919.74;108594;1262;125909;-80
2023/07/09 11:33:31;;;;;;;;;;;;;;;25.14;38.51;101919.96;108543;1259;72527;-81
2023/07/09 11:36:15;;;;;;;;;;;;;;;25.10;38.34;101921.11;108563;1264;59668;-81
2023/07/09 11:38:47;;;;;;;;;;;;;;;25.11;38.10;101922.34;108455;1259;124567;-80
2023/07/09 11:41:34;;;;;;;;;;;;;;;25.14;38.20;101920.15;108528;1258;75309;-79
2023/07/09 11:44:10;;;;;;;;;;;;;;;25.19;37.99;101914.31;108540;1259;124904;-80
2023/07/09 11:46:43;;;;;;;;;;;;;;;25.23;38.11;101918.73;108640;1259;72555;-86
2023/07/09 11:49:10;;;;;;;;;;;;;;;25.28;38.04;101918.86;108553;1259;124880;-88
2023/07/09 11:51:40;;;;;;;;;;;;;;;25.28;37.92;101918.31;108616;1260;59457;-87
2023/07/09 11:54:14;;;;;;;;;;;;;;;25.30;37.74;101916.65;108552;1257;74223;-94
2023/07/09 11:56:41;;;;;;;;;;;;;;;25.34;37.60;101916.05;108601;1258;124648;-92
2023/07/09 11:59:10;;;;;;;;;;;;;;;25.38;37.65;101914.89;108495;1264;73183;-93
2023/07/09 12:01:43;;;;;;;;;;;;;;;25.43;37.61;101918.05;108526;1259;124049;-93
2023/07/09 12:04:17;;;;;;;;;;;;;;;25.41;37.58;101911.08;108617;1259;59473;-93
2023/07/09 12:06:47;;;;;;;;;;;;;;;25.44;37.46;101908.86;108455;1259;124547;-94
2023/07/09 12:09:18;;;;;;;;;;;;;;;25.46;37.42;101909.54;108748;1262;68166;-94
2023/07/09 12:11:46;;;;;;;;;;;;;;;25.41;37.34;101910.17;108694;1257;73379;-95
2023/07/09 12:14:14;;;;;;;;;;;;;;;25.38;37.39;101909.67;108505;1259;124194;-94
2023/07/09 12:16:45;;;;;;;;;;;;;;;25.38;37.35;101912.22;108615;1259;59096;-94
2023/07/09 12:19:12;;;;;;;;;;;;;;;25.38;37.46;101909.86;108591;1259;124673;-95
2023/07/09 12:21:42;;;;;;;;;;;;;;;25.45;37.34;101909.55;108767;1259;66765;-96
2023/07/09 12:24:34;;;;;;;;;;;;;;;25.48;37.45;101904.66;108759;1262;73234;-93
2023/07/09 12:27:25;;;;;;;;;;;;;;;25.51;37.54;101900.82;108677;1259;59362;-90
2023/07/09 12:29:54;;;;;;;;;;;;;;;25.50;37.45;101896.34;108525;1259;59500;-91
2023/07/09 12:32:28;;;;;;;;;;;;;;;25.48;37.34;101897.47;108483;1257;124231;-90
2023/07/09 12:35:26;;;;;;;;;;;;;;;25.53;37.54;101893.77;108487;1260;66487;-90
2023/07/09 12:38:01;;;;;;;;;;;;;;;25.58;37.37;101885.21;108542;1259;124724;-93
2023/07/09 12:40:28;;;;;;;;;;;;;;;25.66;37.40;101883.29;108706;1260;59374;-86